createdAt,value
2019-02-26T00:03:04.723Z,0.59
2019-02-26T00:08:14.597Z,0.72
2019-02-26T00:13:21.159Z,1.04
2019-02-26T00:18:30.566Z,0.93
2019-02-26T00:23:41.633Z,0.60
2019-02-26T00:28:48.850Z,0.59
2019-02-26T00:33:58.054Z,0.49
2019-02-26T00:39:07.366Z,0.39
2019-02-26T00:44:18.603Z,0.67
2019-02-26T00:49:25.807Z,1.12
2019-02-26T00:54:34.381Z,3.39
2019-02-26T00:59:44.077Z,1.00
2019-02-26T01:04:51.310Z,0.91
2019-02-26T01:10:00.675Z,0.64
2019-02-26T01:15:11.472Z,1.27
2019-02-26T01:20:19.657Z,1.86
2019-02-26T01:25:27.326Z,1.00
2019-02-26T01:30:36.567Z,0.84
2019-02-26T01:35:45.756Z,1.32
2019-02-26T01:40:55.959Z,1.12
2019-02-26T01:46:03.895Z,1.38
2019-02-26T01:51:13.144Z,1.53
2019-02-26T01:56:22.350Z,0.86
2019-02-26T02:01:31.655Z,1.23
2019-02-26T02:06:41.360Z,0.97
2019-02-26T02:11:49.774Z,0.68
2019-02-26T02:16:58.958Z,0.57
2019-02-26T02:22:09.909Z,0.83
2019-02-26T02:27:19.510Z,0.86
2019-02-26T02:32:28.233Z,0.76
2019-02-26T02:37:34.773Z,0.66
2019-02-26T02:42:45.929Z,2.40
2019-02-26T02:47:55.031Z,2.37
2019-02-26T02:53:03.710Z,0.89
2019-02-26T02:58:13.058Z,0.76
2019-02-26T03:03:19.151Z,0.90
2019-02-26T03:08:28.433Z,0.73
2019-02-26T03:13:37.674Z,0.84
2019-02-26T03:18:46.935Z,0.87
2019-02-26T03:23:57.786Z,1.67
2019-02-26T03:29:04.851Z,1.05
2019-02-26T03:34:15.719Z,0.89
2019-02-26T03:39:22.938Z,0.80
2019-02-26T03:44:32.125Z,0.85
2019-02-26T03:49:42.278Z,1.09
2019-02-26T03:54:50.743Z,1.81
2019-02-26T03:59:59.556Z,0.96
2019-02-26T04:05:08.847Z,0.65
2019-02-26T04:10:16.250Z,0.70
2019-02-26T04:15:27.913Z,0.83
2019-02-26T04:20:34.146Z,0.82
2019-02-26T04:25:43.556Z,0.54
2019-02-26T04:30:52.706Z,0.76
2019-02-26T04:36:01.946Z,0.59
2019-02-26T04:41:13.391Z,0.47
2019-02-26T04:46:19.935Z,0.97
2019-02-26T04:51:29.167Z,1.94
2019-02-26T04:56:40.119Z,0.78
2019-02-26T05:01:49.056Z,0.69
2019-02-26T05:06:55.999Z,0.82
2019-02-26T05:12:05.229Z,0.62
2019-02-26T05:17:14.507Z,1.15
2019-02-26T05:22:25.704Z,1.09
2019-02-26T05:27:33.012Z,1.03
2019-02-26T05:32:42.260Z,1.14
2019-02-26T05:39:05.305Z,0.96
2019-02-26T05:44:14.507Z,1.23
2019-02-26T05:49:23.723Z,0.62
2019-02-26T05:54:32.954Z,0.85
2019-02-26T05:59:42.338Z,1.12
2019-02-26T06:04:53.483Z,1.18
2019-02-26T06:10:00.505Z,1.19
2019-02-26T06:15:09.742Z,1.05
2019-02-26T06:20:26.014Z,1.33
2019-02-26T06:25:24.468Z,1.05
2019-02-26T06:30:31.100Z,1.64
2019-02-26T06:35:40.707Z,0.64
2019-02-26T06:40:51.295Z,0.88
2019-02-26T06:46:00.060Z,1.10
2019-02-26T06:51:07.159Z,0.66
2019-02-26T06:56:17.895Z,0.96
2019-02-26T07:01:25.238Z,1.08
2019-02-26T07:06:34.894Z,2.32
2019-02-26T07:11:43.301Z,1.00
2019-02-26T07:16:52.596Z,1.12
2019-02-26T07:22:02.034Z,1.36
2019-02-26T07:27:12.068Z,1.94
2019-02-26T07:32:21.691Z,2.71
2019-02-26T07:37:30.679Z,0.93
2019-02-26T07:42:39.587Z,1.19
2019-02-26T07:47:48.489Z,0.93
2019-02-26T07:52:57.573Z,0.81
2019-02-26T07:58:06.126Z,0.90
2019-02-26T08:03:13.161Z,0.57
2019-02-26T08:08:22.566Z,1.23
2019-02-26T08:13:33.970Z,2.44
2019-02-26T08:18:40.664Z,1.99
2019-02-26T08:23:51.054Z,2.07
2019-02-26T08:29:00.223Z,0.73
2019-02-26T08:34:07.662Z,1.85
2019-02-26T08:39:17.011Z,1.80
2019-02-26T08:44:28.134Z,1.20
2019-02-26T08:49:35.956Z,3.91
2019-02-26T08:54:43.843Z,1.42
2019-02-26T08:59:54.561Z,2.42
2019-02-26T09:05:04.455Z,2.05
2019-02-26T09:10:12.615Z,1.30
2019-02-26T09:15:19.741Z,1.08
2019-02-26T09:20:29.182Z,1.10
2019-02-26T09:25:38.460Z,1.07
2019-02-26T09:30:47.794Z,1.12
2019-02-26T09:35:56.721Z,3.12
2019-02-26T09:41:04.423Z,1.89
2019-02-26T09:46:16.328Z,2.66
2019-02-26T09:51:22.454Z,1.10
2019-02-26T09:56:31.719Z,0.53
2019-02-26T10:01:42.825Z,0.92
2019-02-26T10:06:50.090Z,1.07
2019-02-26T10:11:59.324Z,0.57
2019-02-26T10:17:09.282Z,1.06
2019-02-26T10:22:17.391Z,1.81
2019-02-26T10:27:31.040Z,0.95
2019-02-26T10:32:35.517Z,1.19
2019-02-26T10:37:44.831Z,1.04
2019-02-26T10:42:54.102Z,1.31
2019-02-26T10:48:03.458Z,1.87
2019-02-26T10:53:15.765Z,1.24
2019-02-26T10:58:21.707Z,1.43
2019-02-26T11:03:35.277Z,1.11
2019-02-26T11:08:39.854Z,0.97
2019-02-26T11:13:51.949Z,0.55
2019-02-26T11:18:59.232Z,0.88
2019-02-26T11:24:08.612Z,0.87
2019-02-26T11:29:15.786Z,0.58
2019-02-26T11:34:25.479Z,1.88
2019-02-26T11:39:33.940Z,1.42
2019-02-26T11:44:43.370Z,2.62
2019-02-26T11:49:52.652Z,0.82
2019-02-26T11:55:05.767Z,0.95
2019-02-26T12:00:10.796Z,0.68
2019-02-26T12:05:20.118Z,1.01
2019-02-26T12:10:30.517Z,0.57
2019-02-26T12:15:41.525Z,0.75
2019-02-26T12:20:48.782Z,0.52
2019-02-26T12:25:57.840Z,0.57
2019-02-26T12:31:07.002Z,1.46
2019-02-26T12:36:13.918Z,0.53
2019-02-26T12:41:23.136Z,1.05
2019-02-26T12:46:33.778Z,2.32
2019-02-26T12:51:41.222Z,0.51
2019-02-26T12:56:52.293Z,2.04
2019-02-26T13:01:59.535Z,1.69
2019-02-26T13:07:09.494Z,0.67
2019-02-26T13:12:20.460Z,1.31
2019-02-26T13:17:28.734Z,0.64
2019-02-26T13:22:35.576Z,0.84
2019-02-26T13:27:47.254Z,0.75
2019-02-26T13:32:59.748Z,0.53
2019-02-26T13:38:02.755Z,1.83
2019-02-26T13:43:11.924Z,1.63
2019-02-26T13:48:21.344Z,0.84
2019-02-26T13:53:30.727Z,0.74
2019-02-26T13:58:40.103Z,0.76
2019-02-26T14:03:49.436Z,1.70
2019-02-26T14:08:58.753Z,1.16
2019-02-26T14:14:08.139Z,0.61
2019-02-26T14:19:17.395Z,0.44
2019-02-26T14:24:26.730Z,0.52
2019-02-26T14:29:35.969Z,1.06
2019-02-26T14:34:45.386Z,0.84
2019-02-26T14:39:54.663Z,1.55
2019-02-26T14:45:03.933Z,0.92
2019-02-26T14:50:13.151Z,2.53
2019-02-26T14:55:22.556Z,1.27
2019-02-26T15:00:31.781Z,0.62
2019-02-26T15:05:41.037Z,4.47
2019-02-26T15:10:50.251Z,3.15
2019-02-26T15:15:59.520Z,2.73
2019-02-26T15:21:08.913Z,2.50
2019-02-26T15:26:18.307Z,2.37
2019-02-26T15:31:27.639Z,4.15
2019-02-26T15:36:37.031Z,6.82
2019-02-26T15:41:48.216Z,4.26
2019-02-26T15:46:55.164Z,5.66
2019-02-26T15:52:04.446Z,3.60
2019-02-26T15:57:13.868Z,2.29
2019-02-26T16:02:23.098Z,3.13
2019-02-26T16:07:32.509Z,2.14
2019-02-26T16:12:42.436Z,1.70
2019-02-26T16:17:51.734Z,3.59
2019-02-26T16:23:00.927Z,3.53
2019-02-26T16:28:10.203Z,12.67
2019-02-26T16:33:19.426Z,7.83
2019-02-26T16:38:28.732Z,7.04
2019-02-26T16:43:38.059Z,4.77
2019-02-26T16:48:47.310Z,2.74
2019-02-26T16:53:56.559Z,3.61
2019-02-26T16:59:07.852Z,2.80
2019-02-26T17:04:14.900Z,1.39
2019-02-26T17:09:24.295Z,0.99
2019-02-26T17:14:33.597Z,0.62
2019-02-26T17:19:42.918Z,1.39
2019-02-26T17:24:53.675Z,0.38
2019-02-26T17:30:01.020Z,0.61
2019-02-26T17:35:10.399Z,0.90
2019-02-26T17:40:19.638Z,0.44
2019-02-26T17:45:28.876Z,0.39
2019-02-26T17:50:38.454Z,0.45
2019-02-26T17:55:47.699Z,0.67
2019-02-26T18:00:56.979Z,0.48
2019-02-26T18:06:06.187Z,0.65
2019-02-26T18:11:15.606Z,0.74
2019-02-26T18:16:25.885Z,0.49
2019-02-26T18:21:26.336Z,0.92
2019-02-26T18:26:25.993Z,1.60
2019-02-26T18:31:35.480Z,1.24
2019-02-26T18:36:45.473Z,0.76
2019-02-26T18:41:53.662Z,1.08
2019-02-26T18:47:04.831Z,4.25
2019-02-26T18:52:13.089Z,0.36
2019-02-26T18:57:12.714Z,0.49
2019-02-26T19:02:22.104Z,0.77
2019-02-26T19:07:33.795Z,0.25
2019-02-26T19:12:40.953Z,0.88
2019-02-26T19:17:50.326Z,1.02
2019-02-26T19:22:59.681Z,0.61
2019-02-26T19:28:09.881Z,1.89
2019-02-26T19:33:18.727Z,0.56
2019-02-26T19:38:27.683Z,0.84
2019-02-26T19:43:35.577Z,1.45
2019-02-26T19:48:44.843Z,0.67
2019-02-26T19:53:54.151Z,1.42
2019-02-26T19:59:03.396Z,0.64
2019-02-26T20:04:12.651Z,2.37
2019-02-26T20:09:21.843Z,0.68
2019-02-26T20:14:31.061Z,1.27
2019-02-26T20:19:40.279Z,0.78
2019-02-26T20:24:49.531Z,2.39
2019-02-26T20:29:58.827Z,0.86
2019-02-26T20:35:11.796Z,1.00
2019-02-26T20:40:16.959Z,1.38
2019-02-26T20:45:26.354Z,1.02
2019-02-26T20:50:35.634Z,1.34
2019-02-26T20:55:52.240Z,1.53
2019-02-26T21:00:54.063Z,1.57
2019-02-26T21:06:03.294Z,0.93
2019-02-26T21:11:12.543Z,1.32
2019-02-26T21:16:21.780Z,1.21
2019-02-26T21:21:31.251Z,1.38
2019-02-26T21:26:40.485Z,2.30
2019-02-26T21:31:52.089Z,1.74
2019-02-26T21:37:00.108Z,2.65
2019-02-26T21:42:07.731Z,1.88
2019-02-26T21:47:16.951Z,1.17
2019-02-26T21:52:26.215Z,1.24
2019-02-26T21:57:35.386Z,1.39
2019-02-26T22:02:44.753Z,1.50
2019-02-26T22:07:53.947Z,1.59
2019-02-26T22:13:03.189Z,1.33
2019-02-26T22:18:12.492Z,0.73
2019-02-26T22:23:21.762Z,1.87
2019-02-26T22:28:30.961Z,1.13
2019-02-26T22:33:40.769Z,1.27
2019-02-26T22:38:49.209Z,1.21
2019-02-26T22:43:57.774Z,1.96
2019-02-26T22:49:07.048Z,1.48
2019-02-26T22:54:16.407Z,1.61
2019-02-26T22:59:25.647Z,1.02
2019-02-26T23:04:34.842Z,1.01
2019-02-26T23:09:44.083Z,1.13
2019-02-26T23:14:53.353Z,1.90
2019-02-26T23:20:02.495Z,1.10
2019-02-26T23:25:11.744Z,0.77
2019-02-26T23:30:20.949Z,1.14
2019-02-26T23:35:30.321Z,0.84
2019-02-26T23:40:39.552Z,0.99
2019-02-26T23:45:48.772Z,1.20
2019-02-26T23:50:57.943Z,2.55
2019-02-26T23:56:07.131Z,0.75
